NOO8992 RJOM-RJTT
Flight info
| Callsign | NOO8992 |
|---|---|
| Flight time | 1h 5m |
| Altitude | 35000 |
| Route | SAKAR KRE V37 PADOC Y43 MENUR Y21 AKSEL |
| Aircraft | B752/M-SDE3FGHIM3RWXY/LB1 |
Departure
| Time | 2026-04-14 21:28 |
|---|---|
| Airport | Matsuyama Airport (RJOM) |
Arrival
| Time | 2026-04-14 22:34 |
|---|---|
| Airport | Tokyo Haneda International Airport (RJTT) |
| Time | Latitude | Longitude | Altitude | Speed | Heading |
|---|---|---|---|---|---|
| 2026-04-14 20:59 | 33.82910 | 132.70262 | 26 ft | 0 kts | 41° |
| 2026-04-14 21:16 | 33.82908 | 132.70259 | 26 ft | 2 kts | 41° |
| 2026-04-14 21:16 | 33.82896 | 132.70248 | 25 ft | 2 kts | 40° |
| 2026-04-14 21:16 | 33.82885 | 132.70236 | 25 ft | 2 kts | 41° |
| 2026-04-14 21:17 | 33.82874 | 132.70226 | 25 ft | 2 kts | 40° |
| 2026-04-14 21:17 | 33.82862 | 132.70213 | 24 ft | 2 kts | 41° |
| 2026-04-14 21:17 | 33.82851 | 132.70201 | 24 ft | 2 kts | 41° |
| 2026-04-14 21:17 | 33.82840 | 132.70189 | 24 ft | 2 kts | 41° |
| 2026-04-14 21:18 | 33.82828 | 132.70178 | 24 ft | 2 kts | 46° |
| 2026-04-14 21:18 | 33.82820 | 132.70161 | 23 ft | 2 kts | 77° |
| 2026-04-14 21:18 | 33.82820 | 132.70145 | 22 ft | 2 kts | 102° |
| 2026-04-14 21:18 | 33.82825 | 132.70128 | 22 ft | 1 kts | 126° |
| 2026-04-14 21:19 | 33.82829 | 132.70122 | 22 ft | 1 kts | 133° |
| 2026-04-14 21:19 | 33.82831 | 132.70120 | 22 ft | 0 kts | 131° |
| 2026-04-14 21:22 | 33.82826 | 132.70126 | 22 ft | 2 kts | 131° |
| 2026-04-14 21:22 | 33.82812 | 132.70145 | 22 ft | 3 kts | 130° |
| 2026-04-14 21:23 | 33.82794 | 132.70172 | 23 ft | 4 kts | 130° |
| 2026-04-14 21:23 | 33.82770 | 132.70206 | 23 ft | 5 kts | 130° |
| 2026-04-14 21:23 | 33.82744 | 132.70242 | 23 ft | 6 kts | 130° |
| 2026-04-14 21:23 | 33.82717 | 132.70281 | 23 ft | 6 kts | 130° |
| 2026-04-14 21:24 | 33.82688 | 132.70322 | 24 ft | 6 kts | 130° |
| 2026-04-14 21:24 | 33.82659 | 132.70363 | 23 ft | 6 kts | 130° |
| 2026-04-14 21:24 | 33.82628 | 132.70406 | 23 ft | 6 kts | 130° |
| 2026-04-14 21:24 | 33.82596 | 132.70450 | 23 ft | 6 kts | 130° |
| 2026-04-14 21:25 | 33.82565 | 132.70494 | 23 ft | 6 kts | 130° |
| 2026-04-14 21:25 | 33.82534 | 132.70538 | 23 ft | 6 kts | 131° |
| 2026-04-14 21:25 | 33.82503 | 132.70581 | 23 ft | 6 kts | 131° |
| 2026-04-14 21:25 | 33.82471 | 132.70625 | 23 ft | 6 kts | 131° |
| 2026-04-14 21:26 | 33.82434 | 132.70676 | 23 ft | 11 kts | 131° |
| 2026-04-14 21:26 | 33.82374 | 132.70760 | 22 ft | 14 kts | 131° |
| 2026-04-14 21:26 | 33.82296 | 132.70868 | 20 ft | 18 kts | 130° |
| 2026-04-14 21:26 | 33.82211 | 132.70989 | 20 ft | 17 kts | 130° |
| 2026-04-14 21:27 | 33.82137 | 132.71019 | 20 ft | 11 kts | 187° |
| 2026-04-14 21:27 | 33.82065 | 132.70999 | 20 ft | 10 kts | 210° |
| 2026-04-14 21:27 | 33.82036 | 132.70940 | 20 ft | 7 kts | 284° |
| 2026-04-14 21:27 | 33.82051 | 132.70909 | 20 ft | 0 kts | 309° |
| 2026-04-14 21:28 | 33.82144 | 132.70778 | 20 ft | 55 kts | 310° |
| 2026-04-14 21:28 | 33.82556 | 132.70200 | 22 ft | 126 kts | 311° |
| 2026-04-14 21:28 | 33.83261 | 132.69192 | 200 ft | 174 kts | 311° |
| 2026-04-14 21:28 | 33.84032 | 132.67996 | 913 ft | 190 kts | 306° |
| 2026-04-14 21:29 | 33.84445 | 132.66538 | 1664 ft | 198 kts | 267° |
| 2026-04-14 21:29 | 33.83915 | 132.65037 | 2281 ft | 202 kts | 219° |
| 2026-04-14 21:29 | 33.82642 | 132.64435 | 2833 ft | 205 kts | 176° |
| 2026-04-14 21:29 | 33.81245 | 132.64650 | 3646 ft | 204 kts | 165° |
| 2026-04-14 21:30 | 33.79835 | 132.65041 | 4218 ft | 217 kts | 166° |
| 2026-04-14 21:30 | 33.78326 | 132.65480 | 4848 ft | 231 kts | 165° |
| 2026-04-14 21:30 | 33.76731 | 132.65970 | 5490 ft | 243 kts | 165° |
| 2026-04-14 21:30 | 33.75102 | 132.66490 | 6416 ft | 244 kts | 166° |
| 2026-04-14 21:31 | 33.73412 | 132.67050 | 6902 ft | 263 kts | 165° |
| 2026-04-14 21:31 | 33.71607 | 132.67668 | 7600 ft | 273 kts | 165° |
| 2026-04-14 21:31 | 33.69825 | 132.68507 | 8365 ft | 280 kts | 157° |
| 2026-04-14 21:31 | 33.68074 | 132.69566 | 9057 ft | 289 kts | 153° |
| 2026-04-14 21:32 | 33.66328 | 132.70827 | 9781 ft | 296 kts | 150° |
| 2026-04-14 21:32 | 33.64609 | 132.72203 | 10536 ft | 301 kts | 148° |
| 2026-04-14 21:32 | 33.62843 | 132.73697 | 10774 ft | 324 kts | 147° |
| 2026-04-14 21:32 | 33.60973 | 132.75343 | 11091 ft | 344 kts | 146° |
| 2026-04-14 21:33 | 33.59116 | 132.77316 | 11363 ft | 366 kts | 132° |
| 2026-04-14 21:33 | 33.57684 | 132.79932 | 11561 ft | 388 kts | 116° |
| 2026-04-14 21:33 | 33.56900 | 132.83022 | 12265 ft | 393 kts | 100° |
| 2026-04-14 21:33 | 33.56777 | 132.86301 | 12844 ft | 398 kts | 87° |
| 2026-04-14 21:34 | 33.56842 | 132.89636 | 13438 ft | 403 kts | 91° |
| 2026-04-14 21:34 | 33.56804 | 132.92999 | 14094 ft | 405 kts | 91° |
| 2026-04-14 21:34 | 33.56735 | 132.96390 | 14562 ft | 413 kts | 92° |
| 2026-04-14 21:34 | 33.56643 | 132.99826 | 15276 ft | 414 kts | 92° |
| 2026-04-14 21:35 | 33.56538 | 133.03271 | 15721 ft | 422 kts | 92° |
| 2026-04-14 21:35 | 33.56424 | 133.06784 | 16342 ft | 425 kts | 92° |
| 2026-04-14 21:35 | 33.56306 | 133.10333 | 16833 ft | 430 kts | 92° |
| 2026-04-14 21:35 | 33.56183 | 133.13924 | 17358 ft | 435 kts | 92° |
| 2026-04-14 21:36 | 33.56056 | 133.17564 | 17878 ft | 439 kts | 92° |
| 2026-04-14 21:36 | 33.55927 | 133.21249 | 18316 ft | 446 kts | 92° |
| 2026-04-14 21:36 | 33.55796 | 133.24924 | 18901 ft | 447 kts | 92° |
| 2026-04-14 21:36 | 33.55661 | 133.28682 | 19304 ft | 454 kts | 93° |
| 2026-04-14 21:37 | 33.55523 | 133.32478 | 19817 ft | 458 kts | 92° |
| 2026-04-14 21:37 | 33.55385 | 133.36272 | 20233 ft | 463 kts | 93° |
| 2026-04-14 21:37 | 33.55242 | 133.40114 | 20732 ft | 466 kts | 93° |
| 2026-04-14 21:37 | 33.55097 | 133.44028 | 21104 ft | 472 kts | 93° |
| 2026-04-14 21:38 | 33.54949 | 133.47983 | 21594 ft | 475 kts | 93° |
| 2026-04-14 21:38 | 33.54798 | 133.51956 | 21981 ft | 481 kts | 93° |
| 2026-04-14 21:38 | 33.54646 | 133.55936 | 22476 ft | 482 kts | 93° |
| 2026-04-14 21:38 | 33.54491 | 133.59967 | 22774 ft | 490 kts | 93° |
| 2026-04-14 21:39 | 33.54333 | 133.64040 | 23317 ft | 490 kts | 93° |
| 2026-04-14 21:39 | 33.54172 | 133.68103 | 23611 ft | 497 kts | 94° |
| 2026-04-14 21:39 | 33.53995 | 133.72279 | 24088 ft | 499 kts | 94° |
| 2026-04-14 21:39 | 33.53816 | 133.76439 | 24461 ft | 503 kts | 94° |
| 2026-04-14 21:40 | 33.53634 | 133.80635 | 24833 ft | 508 kts | 94° |
| 2026-04-14 21:40 | 33.53453 | 133.84811 | 25222 ft | 512 kts | 94° |
| 2026-04-14 21:40 | 33.53263 | 133.89113 | 25695 ft | 513 kts | 94° |
| 2026-04-14 21:40 | 33.53075 | 133.93368 | 25959 ft | 520 kts | 94° |
| 2026-04-14 21:41 | 33.52880 | 133.97708 | 26408 ft | 521 kts | 94° |
| 2026-04-14 21:41 | 33.52685 | 134.02052 | 26687 ft | 526 kts | 94° |
| 2026-04-14 21:41 | 33.52487 | 134.06424 | 27083 ft | 529 kts | 94° |
| 2026-04-14 21:41 | 33.52287 | 134.10825 | 27462 ft | 531 kts | 94° |
| 2026-04-14 21:42 | 33.52085 | 134.15199 | 27793 ft | 535 kts | 94° |
| 2026-04-14 21:42 | 33.51878 | 134.19647 | 28089 ft | 538 kts | 94° |
| 2026-04-14 21:42 | 33.51667 | 134.24156 | 28437 ft | 541 kts | 94° |
| 2026-04-14 21:42 | 33.51456 | 134.28638 | 28799 ft | 544 kts | 94° |
| 2026-04-14 21:43 | 33.51241 | 134.33154 | 29114 ft | 547 kts | 94° |
| 2026-04-14 21:43 | 33.51026 | 134.37657 | 29425 ft | 549 kts | 94° |
| 2026-04-14 21:43 | 33.50828 | 134.42238 | 29705 ft | 552 kts | 93° |
| 2026-04-14 21:43 | 33.50629 | 134.46848 | 30076 ft | 552 kts | 93° |
| 2026-04-14 21:44 | 33.50429 | 134.51417 | 30338 ft | 554 kts | 93° |
| 2026-04-14 21:44 | 33.50229 | 134.56000 | 30606 ft | 556 kts | 93° |
| 2026-04-14 21:44 | 33.50021 | 134.60654 | 30904 ft | 557 kts | 93° |
| 2026-04-14 21:44 | 33.49826 | 134.65256 | 31299 ft | 556 kts | 94° |
| 2026-04-14 21:45 | 33.49626 | 134.69853 | 31509 ft | 558 kts | 94° |
| 2026-04-14 21:45 | 33.49423 | 134.74474 | 31730 ft | 560 kts | 94° |
| 2026-04-14 21:45 | 33.49216 | 134.79150 | 31942 ft | 562 kts | 94° |
| 2026-04-14 21:45 | 33.49009 | 134.83824 | 32180 ft | 564 kts | 94° |
| 2026-04-14 21:46 | 33.48797 | 134.88500 | 32396 ft | 565 kts | 94° |
| 2026-04-14 21:46 | 33.48584 | 134.93228 | 32628 ft | 566 kts | 94° |
| 2026-04-14 21:46 | 33.48371 | 134.97876 | 32805 ft | 568 kts | 94° |
| 2026-04-14 21:46 | 33.48158 | 135.02606 | 33089 ft | 568 kts | 94° |
| 2026-04-14 21:47 | 33.47950 | 135.07314 | 33409 ft | 568 kts | 94° |
| 2026-04-14 21:47 | 33.47736 | 135.12056 | 33687 ft | 568 kts | 94° |
| 2026-04-14 21:47 | 33.47523 | 135.16765 | 33850 ft | 571 kts | 94° |
| 2026-04-14 21:47 | 33.47309 | 135.21486 | 34258 ft | 568 kts | 94° |
| 2026-04-14 21:48 | 33.47091 | 135.26222 | 34395 ft | 571 kts | 94° |
| 2026-04-14 21:48 | 33.46870 | 135.30957 | 34662 ft | 571 kts | 95° |
| 2026-04-14 21:48 | 33.46665 | 135.35622 | 34886 ft | 564 kts | 94° |
| 2026-04-14 21:48 | 33.46476 | 135.40221 | 34887 ft | 546 kts | 93° |
| 2026-04-14 21:49 | 33.46288 | 135.44682 | 34882 ft | 530 kts | 93° |
| 2026-04-14 21:49 | 33.46106 | 135.48997 | 34884 ft | 511 kts | 94° |
| 2026-04-14 21:49 | 33.45931 | 135.53171 | 34882 ft | 495 kts | 94° |
| 2026-04-14 21:49 | 33.45752 | 135.57289 | 34925 ft | 495 kts | 94° |
| 2026-04-14 21:50 | 33.45388 | 135.65604 | 34909 ft | 507 kts | 94° |
| 2026-04-14 21:50 | 33.45015 | 135.74052 | 34897 ft | 515 kts | 94° |
| 2026-04-14 21:51 | 33.45497 | 135.82564 | 34915 ft | 511 kts | 76° |
| 2026-04-14 21:51 | 33.47056 | 135.90851 | 34904 ft | 512 kts | 74° |
| 2026-04-14 21:52 | 33.48663 | 135.99146 | 34914 ft | 512 kts | 75° |
| 2026-04-14 21:52 | 33.50273 | 136.07413 | 34918 ft | 511 kts | 74° |
| 2026-04-14 21:53 | 33.51880 | 136.15665 | 34911 ft | 511 kts | 74° |
| 2026-04-14 21:53 | 33.53478 | 136.23903 | 34913 ft | 511 kts | 73° |
| 2026-04-14 21:54 | 33.55078 | 136.32182 | 34913 ft | 511 kts | 74° |
| 2026-04-14 21:54 | 33.56676 | 136.40475 | 34919 ft | 513 kts | 74° |
| 2026-04-14 21:55 | 33.58269 | 136.48781 | 34920 ft | 510 kts | 74° |
| 2026-04-14 21:55 | 33.59849 | 136.57048 | 34934 ft | 511 kts | 74° |
| 2026-04-14 21:56 | 33.61421 | 136.65308 | 34931 ft | 511 kts | 75° |
| 2026-04-14 21:56 | 33.62995 | 136.73604 | 34908 ft | 509 kts | 75° |
| 2026-04-14 21:57 | 33.64553 | 136.81857 | 34918 ft | 511 kts | 74° |
| 2026-04-14 21:57 | 33.66124 | 136.90208 | 34923 ft | 511 kts | 74° |
| 2026-04-14 21:58 | 33.67669 | 136.98453 | 34916 ft | 510 kts | 75° |
| 2026-04-14 21:58 | 33.69216 | 137.06751 | 34929 ft | 512 kts | 75° |
| 2026-04-14 21:59 | 33.70760 | 137.15050 | 34924 ft | 509 kts | 74° |
| 2026-04-14 21:59 | 33.72298 | 137.23355 | 34936 ft | 509 kts | 74° |
| 2026-04-14 22:00 | 33.73832 | 137.31657 | 34944 ft | 511 kts | 75° |
| 2026-04-14 22:00 | 33.75350 | 137.39928 | 34940 ft | 509 kts | 75° |
| 2026-04-14 22:01 | 33.76860 | 137.48180 | 34947 ft | 507 kts | 74° |
| 2026-04-14 22:01 | 33.78376 | 137.56482 | 34938 ft | 508 kts | 74° |
| 2026-04-14 22:02 | 33.79871 | 137.64717 | 34941 ft | 507 kts | 75° |
| 2026-04-14 22:02 | 33.81374 | 137.73027 | 34937 ft | 509 kts | 74° |
| 2026-04-14 22:03 | 33.82866 | 137.81320 | 34935 ft | 507 kts | 75° |
| 2026-04-14 22:03 | 33.84347 | 137.89577 | 34932 ft | 508 kts | 75° |
| 2026-04-14 22:04 | 33.85824 | 137.97845 | 34942 ft | 507 kts | 74° |
| 2026-04-14 22:04 | 33.87294 | 138.06117 | 34947 ft | 506 kts | 75° |
| 2026-04-14 22:05 | 33.88753 | 138.14346 | 34954 ft | 505 kts | 75° |
| 2026-04-14 22:05 | 33.90211 | 138.22612 | 34964 ft | 506 kts | 75° |
| 2026-04-14 22:06 | 33.92417 | 138.30512 | 34981 ft | 494 kts | 56° |
| 2026-04-14 22:06 | 33.95613 | 138.37848 | 34972 ft | 492 kts | 56° |
| 2026-04-14 22:07 | 33.98822 | 138.45113 | 34963 ft | 493 kts | 55° |
| 2026-04-14 22:07 | 34.02061 | 138.52432 | 34962 ft | 491 kts | 55° |
| 2026-04-14 22:08 | 34.05262 | 138.59660 | 34993 ft | 491 kts | 55° |
| 2026-04-14 22:08 | 34.08456 | 138.66890 | 34972 ft | 489 kts | 56° |
| 2026-04-14 22:09 | 34.11639 | 138.74104 | 34958 ft | 488 kts | 56° |
| 2026-04-14 22:09 | 34.14863 | 138.81424 | 34980 ft | 499 kts | 56° |
| 2026-04-14 22:10 | 34.18139 | 138.88884 | 34988 ft | 509 kts | 56° |
| 2026-04-14 22:10 | 34.21483 | 138.96504 | 34680 ft | 529 kts | 56° |
| 2026-04-14 22:11 | 34.23239 | 139.00511 | 33987 ft | 541 kts | 57° |
| 2026-04-14 22:11 | 34.24979 | 139.04498 | 33297 ft | 537 kts | 57° |
| 2026-04-14 22:11 | 34.26699 | 139.08443 | 32622 ft | 534 kts | 58° |
| 2026-04-14 22:11 | 34.28382 | 139.12430 | 31908 ft | 535 kts | 62° |
| 2026-04-14 22:12 | 34.29823 | 139.16507 | 31232 ft | 534 kts | 63° |
| 2026-04-14 22:12 | 34.31267 | 139.20656 | 30512 ft | 532 kts | 63° |
| 2026-04-14 22:12 | 34.32684 | 139.24741 | 29804 ft | 530 kts | 64° |
| 2026-04-14 22:12 | 34.34091 | 139.28809 | 29051 ft | 527 kts | 64° |
| 2026-04-14 22:13 | 34.35502 | 139.32903 | 28274 ft | 524 kts | 64° |
| 2026-04-14 22:13 | 34.36875 | 139.36896 | 28007 ft | 509 kts | 64° |
| 2026-04-14 22:13 | 34.38218 | 139.40810 | 27743 ft | 497 kts | 64° |
| 2026-04-14 22:13 | 34.39520 | 139.44601 | 27072 ft | 493 kts | 64° |
| 2026-04-14 22:14 | 34.40825 | 139.48407 | 26537 ft | 487 kts | 64° |
| 2026-04-14 22:14 | 34.42111 | 139.52165 | 25927 ft | 483 kts | 64° |
| 2026-04-14 22:14 | 34.43383 | 139.55885 | 25301 ft | 479 kts | 64° |
| 2026-04-14 22:14 | 34.44653 | 139.59607 | 24826 ft | 471 kts | 64° |
| 2026-04-14 22:15 | 34.45881 | 139.63209 | 24113 ft | 464 kts | 64° |
| 2026-04-14 22:15 | 34.47207 | 139.66696 | 22762 ft | 456 kts | 57° |
| 2026-04-14 22:15 | 34.48941 | 139.69806 | 21740 ft | 439 kts | 46° |
| 2026-04-14 22:15 | 34.51009 | 139.72401 | 20890 ft | 414 kts | 35° |
| 2026-04-14 22:16 | 34.53219 | 139.74475 | 20556 ft | 400 kts | 31° |
| 2026-04-14 22:16 | 34.55568 | 139.76433 | 20236 ft | 422 kts | 29° |
| 2026-04-14 22:16 | 34.58033 | 139.78377 | 19754 ft | 423 kts | 28° |
| 2026-04-14 22:16 | 34.60490 | 139.80270 | 19243 ft | 414 kts | 28° |
| 2026-04-14 22:17 | 34.62913 | 139.82101 | 18712 ft | 407 kts | 28° |
| 2026-04-14 22:17 | 34.65301 | 139.83887 | 18177 ft | 403 kts | 27° |
| 2026-04-14 22:17 | 34.67667 | 139.85643 | 17718 ft | 397 kts | 27° |
| 2026-04-14 22:17 | 34.70018 | 139.87369 | 17672 ft | 390 kts | 27° |
| 2026-04-14 22:18 | 34.72365 | 139.89088 | 17678 ft | 400 kts | 27° |
| 2026-04-14 22:18 | 34.74766 | 139.90851 | 17678 ft | 402 kts | 27° |
| 2026-04-14 22:18 | 34.77141 | 139.92596 | 17677 ft | 400 kts | 27° |
| 2026-04-14 22:18 | 34.79526 | 139.94348 | 17674 ft | 398 kts | 27° |
| 2026-04-14 22:19 | 34.81887 | 139.96085 | 17673 ft | 397 kts | 27° |
| 2026-04-14 22:19 | 34.86595 | 139.99547 | 17675 ft | 398 kts | 27° |
| 2026-04-14 22:19 | 34.88981 | 140.01300 | 17675 ft | 397 kts | 28° |
| 2026-04-14 22:20 | 34.91327 | 140.03027 | 17674 ft | 398 kts | 27° |
| 2026-04-14 22:20 | 34.93712 | 140.04784 | 17678 ft | 398 kts | 27° |
| 2026-04-14 22:20 | 34.96090 | 140.06534 | 17673 ft | 399 kts | 27° |
| 2026-04-14 22:20 | 34.98467 | 140.08243 | 17467 ft | 402 kts | 23° |
| 2026-04-14 22:21 | 35.01036 | 140.09412 | 16701 ft | 387 kts | 8° |
| 2026-04-14 22:21 | 35.03680 | 140.09784 | 16009 ft | 379 kts | 1° |
| 2026-04-14 22:21 | 35.06263 | 140.10130 | 15306 ft | 379 kts | 5° |
| 2026-04-14 22:21 | 35.08818 | 140.10632 | 14455 ft | 367 kts | 7° |
| 2026-04-14 22:22 | 35.11286 | 140.11188 | 13859 ft | 347 kts | 8° |
| 2026-04-14 22:22 | 35.13570 | 140.11841 | 13386 ft | 330 kts | 19° |
| 2026-04-14 22:22 | 35.15523 | 140.13141 | 12990 ft | 314 kts | 38° |
| 2026-04-14 22:22 | 35.17083 | 140.14914 | 12505 ft | 304 kts | 44° |
| 2026-04-14 22:23 | 35.18567 | 140.16745 | 11809 ft | 302 kts | 44° |
| 2026-04-14 22:23 | 35.20020 | 140.18527 | 11162 ft | 297 kts | 44° |
| 2026-04-14 22:23 | 35.21482 | 140.20302 | 10552 ft | 291 kts | 44° |
| 2026-04-14 22:23 | 35.22982 | 140.21913 | 9846 ft | 289 kts | 29° |
| 2026-04-14 22:24 | 35.24859 | 140.22705 | 9142 ft | 285 kts | 2° |
| 2026-04-14 22:24 | 35.26765 | 140.22392 | 8486 ft | 281 kts | 336° |
| 2026-04-14 22:24 | 35.28364 | 140.21043 | 7771 ft | 279 kts | 308° |
| 2026-04-14 22:24 | 35.29270 | 140.18993 | 7059 ft | 275 kts | 280° |
| 2026-04-14 22:25 | 35.29364 | 140.16756 | 6736 ft | 258 kts | 267° |
| 2026-04-14 22:25 | 35.29369 | 140.14616 | 6392 ft | 249 kts | 271° |
| 2026-04-14 22:25 | 35.29471 | 140.12506 | 6072 ft | 247 kts | 273° |
| 2026-04-14 22:25 | 35.29466 | 140.10440 | 5749 ft | 246 kts | 255° |
| 2026-04-14 22:26 | 35.28899 | 140.08460 | 5440 ft | 244 kts | 247° |
| 2026-04-14 22:26 | 35.28294 | 140.06532 | 5157 ft | 242 kts | 248° |
| 2026-04-14 22:26 | 35.27695 | 140.04620 | 4900 ft | 240 kts | 248° |
| 2026-04-14 22:26 | 35.27112 | 140.02776 | 4868 ft | 227 kts | 248° |
| 2026-04-14 22:27 | 35.26555 | 140.00992 | 4653 ft | 224 kts | 252° |
| 2026-04-14 22:27 | 35.26459 | 139.99097 | 4336 ft | 226 kts | 279° |
| 2026-04-14 22:27 | 35.27047 | 139.97354 | 4028 ft | 224 kts | 317° |
| 2026-04-14 22:27 | 35.28328 | 139.96307 | 3756 ft | 220 kts | 334° |
| 2026-04-14 22:28 | 35.29666 | 139.95460 | 3584 ft | 216 kts | 333° |
| 2026-04-14 22:28 | 35.30977 | 139.94548 | 3324 ft | 214 kts | 331° |
| 2026-04-14 22:28 | 35.32235 | 139.93648 | 3242 ft | 207 kts | 332° |
| 2026-04-14 22:28 | 35.33519 | 139.92749 | 3138 ft | 217 kts | 332° |
| 2026-04-14 22:29 | 35.34830 | 139.91830 | 3016 ft | 217 kts | 332° |
| 2026-04-14 22:29 | 35.36129 | 139.90915 | 2970 ft | 212 kts | 332° |
| 2026-04-14 22:29 | 35.37414 | 139.90012 | 2978 ft | 213 kts | 332° |
| 2026-04-14 22:29 | 35.38709 | 139.89104 | 2978 ft | 215 kts | 332° |
| 2026-04-14 22:30 | 35.40006 | 139.88191 | 2978 ft | 215 kts | 332° |
| 2026-04-14 22:30 | 35.41302 | 139.87277 | 2787 ft | 213 kts | 332° |
| 2026-04-14 22:30 | 35.42544 | 139.86401 | 2498 ft | 199 kts | 332° |
| 2026-04-14 22:30 | 35.43710 | 139.85579 | 2230 ft | 186 kts | 333° |
| 2026-04-14 22:31 | 35.44791 | 139.84817 | 2003 ft | 175 kts | 333° |
| 2026-04-14 22:31 | 35.45824 | 139.84091 | 1832 ft | 164 kts | 333° |
| 2026-04-14 22:31 | 35.46786 | 139.83411 | 1618 ft | 154 kts | 333° |
| 2026-04-14 22:31 | 35.47709 | 139.82761 | 1391 ft | 149 kts | 333° |
| 2026-04-14 22:32 | 35.48484 | 139.82213 | 1211 ft | 145 kts | 333° |
| 2026-04-14 22:32 | 35.48573 | 139.82150 | 1191 ft | 145 kts | 333° |
| 2026-04-14 22:32 | 35.49441 | 139.81541 | 1016 ft | 143 kts | 333° |
| 2026-04-14 22:32 | 35.50311 | 139.80940 | 813 ft | 142 kts | 333° |
| 2026-04-14 22:33 | 35.51154 | 139.80342 | 627 ft | 140 kts | 332° |
| 2026-04-14 22:33 | 35.51993 | 139.79741 | 430 ft | 139 kts | 332° |
| 2026-04-14 22:33 | 35.52829 | 139.79147 | 241 ft | 137 kts | 332° |
| 2026-04-14 22:33 | 35.53653 | 139.78564 | 70 ft | 135 kts | 331° |
| 2026-04-14 22:34 | 35.54424 | 139.78023 | 17 ft | 109 kts | 330° |
| 2026-04-14 22:34 | 35.54891 | 139.77693 | 27 ft | 49 kts | 330° |
| 2026-04-14 22:34 | 35.55113 | 139.77536 | 30 ft | 27 kts | 330° |
| 2026-04-14 22:34 | 35.55225 | 139.77501 | 31 ft | 12 kts | 40° |
| 2026-04-14 22:35 | 35.55270 | 139.77579 | 33 ft | 9 kts | 60° |
| 2026-04-14 22:35 | 35.55298 | 139.77640 | 35 ft | 6 kts | 60° |
| 2026-04-14 22:35 | 35.55320 | 139.77686 | 36 ft | 6 kts | 59° |
| 2026-04-14 22:35 | 35.55342 | 139.77730 | 36 ft | 6 kts | 59° |
| 2026-04-14 22:36 | 35.55364 | 139.77777 | 36 ft | 6 kts | 59° |
| 2026-04-14 22:36 | 35.55384 | 139.77830 | 36 ft | 6 kts | 83° |
| 2026-04-14 22:36 | 35.55366 | 139.77872 | 36 ft | 6 kts | 144° |
| 2026-04-14 22:36 | 35.55329 | 139.77901 | 36 ft | 6 kts | 148° |
| 2026-04-14 22:37 | 35.55285 | 139.77934 | 35 ft | 7 kts | 136° |
| 2026-04-14 22:37 | 35.55279 | 139.77989 | 35 ft | 6 kts | 67° |
| 2026-04-14 22:37 | 35.55284 | 139.78027 | 36 ft | 3 kts | 121° |
| 2026-04-14 22:37 | 35.55260 | 139.78047 | 36 ft | 5 kts | 149° |
| 2026-04-14 22:38 | 35.55230 | 139.78070 | 36 ft | 3 kts | 150° |
| 2026-04-14 22:38 | 35.55223 | 139.78073 | 36 ft | 0 kts | 150° |
| 2026-04-14 22:38 | 35.55224 | 139.78073 | 36 ft | 0 kts | 150° |